createdAt,value
2023-03-02T00:09:18.654Z,59.61
2023-03-02T00:12:10.239Z,59.49
2023-03-02T00:14:49.060Z,59.56
2023-03-02T00:21:20.177Z,60.25
2023-03-02T00:33:34.758Z,60.88
2023-03-02T00:36:29.542Z,60.88
2023-03-02T00:39:22.089Z,60.77
2023-03-02T00:41:57.094Z,60.87
2023-03-02T00:44:31.128Z,61.18
2023-03-02T00:51:35.148Z,61.83
2023-03-02T00:54:07.753Z,61.95
2023-03-02T00:56:47.316Z,62.29
2023-03-02T01:03:22.880Z,62.09
2023-03-02T01:15:26.348Z,62.44
2023-03-02T01:18:43.784Z,62.82
2023-03-02T01:22:12.177Z,62.97
2023-03-02T01:24:44.814Z,63.14
2023-03-02T01:27:39.852Z,63.51
2023-03-02T01:30:14.584Z,63.01
2023-03-02T01:33:36.476Z,62.79
2023-03-02T01:36:36.497Z,62.69
2023-03-02T01:39:16.087Z,62.68
2023-03-02T01:41:49.532Z,62.62
2023-03-02T01:49:16.807Z,63.21
2023-03-02T01:52:48.861Z,63.20
2023-03-02T01:59:50.063Z,63.16
2023-03-02T02:02:22.648Z,63.08
2023-03-02T02:09:21.948Z,63.70
2023-03-02T02:12:43.002Z,63.45
2023-03-02T02:15:22.435Z,63.53
2023-03-02T02:17:55.779Z,63.42
2023-03-02T02:33:26.698Z,64.69
2023-03-02T02:41:14.927Z,64.54
2023-03-02T03:06:48.601Z,65.01
2023-03-02T03:18:07.385Z,65.39
2023-03-02T03:20:44.245Z,65.84
2023-03-02T03:25:08.001Z,65.83
2023-03-02T03:28:52.593Z,65.61
2023-03-02T03:31:25.640Z,65.72
2023-03-02T03:34:00.710Z,66.11
2023-03-02T03:37:57.234Z,65.89
2023-03-02T03:40:37.337Z,65.90
2023-03-02T03:43:09.990Z,65.83
2023-03-02T03:50:14.194Z,65.86
2023-03-02T03:52:47.311Z,65.87
2023-03-02T03:59:41.408Z,65.69
2023-03-02T04:07:07.675Z,66.46
2023-03-02T04:09:41.837Z,66.32
2023-03-02T04:13:23.314Z,66.07
2023-03-02T04:16:43.906Z,66.30
2023-03-02T04:19:15.037Z,66.04
2023-03-02T04:21:51.033Z,66.17
2023-03-02T04:25:12.935Z,66.31
2023-03-02T04:27:46.254Z,66.51
2023-03-02T04:30:29.953Z,66.73
2023-03-02T04:33:05.418Z,66.78
2023-03-02T04:35:39.563Z,66.82
2023-03-02T04:38:12.534Z,66.77
2023-03-02T04:40:46.182Z,66.61
2023-03-02T04:43:26.622Z,66.76
2023-03-02T04:45:59.707Z,66.94
2023-03-02T04:48:38.313Z,66.60
2023-03-02T04:55:41.896Z,66.90
2023-03-02T05:07:10.853Z,66.85
2023-03-02T05:10:33.176Z,67.06
2023-03-02T05:13:12.403Z,67.01
2023-03-02T05:19:40.332Z,67.09
2023-03-02T05:22:12.588Z,67.02
2023-03-02T05:24:51.319Z,67.35
2023-03-02T05:27:23.845Z,67.56
2023-03-02T05:29:56.173Z,68.27
2023-03-02T05:33:10.339Z,67.94
2023-03-02T05:35:43.188Z,67.81
2023-03-02T05:38:57.297Z,68.40
2023-03-02T05:41:29.866Z,68.78
2023-03-02T05:44:43.016Z,68.43
2023-03-02T05:47:15.707Z,68.58
2023-03-02T05:49:54.281Z,68.48
2023-03-02T05:52:26.607Z,68.16
2023-03-02T05:59:31.307Z,68.16
2023-03-02T06:02:04.444Z,68.14
2023-03-02T06:04:44.532Z,68.08
2023-03-02T06:07:17.389Z,67.98
2023-03-02T06:09:56.341Z,68.30
2023-03-02T06:12:30.495Z,68.57
2023-03-02T06:15:11.012Z,68.35
2023-03-02T06:17:44.018Z,68.40
2023-03-02T06:24:17.287Z,69.11
2023-03-02T06:26:49.499Z,69.48
2023-03-02T06:29:29.615Z,69.54
2023-03-02T06:32:10.605Z,69.41
2023-03-02T06:34:43.114Z,69.59
2023-03-02T06:37:15.613Z,69.86
2023-03-02T06:39:54.669Z,69.79
2023-03-02T06:42:53.944Z,69.82
2023-03-02T06:45:40.869Z,70.28
2023-03-02T06:48:13.189Z,70.23
2023-03-02T06:50:45.777Z,70.51
2023-03-02T06:58:37.844Z,70.51
2023-03-02T07:01:10.264Z,70.90
2023-03-02T07:04:37.096Z,70.68
2023-03-02T07:07:15.411Z,70.70
2023-03-02T07:09:47.618Z,72.34
2023-03-02T07:12:32.873Z,73.93
2023-03-02T07:15:14.359Z,74.09
2023-03-02T07:18:35.283Z,70.62
2023-03-02T07:21:10.066Z,66.56
2023-03-02T07:24:01.431Z,64.30
2023-03-02T07:26:34.011Z,64.21
2023-03-02T07:29:08.571Z,66.16
2023-03-02T07:33:03.802Z,66.41
2023-03-02T07:36:38.556Z,65.46
2023-03-02T07:39:12.298Z,64.71
2023-03-02T07:41:44.681Z,63.82
2023-03-02T07:44:24.560Z,61.30
2023-03-02T07:46:57.586Z,61.35
2023-03-02T07:58:35.167Z,59.21
2023-03-02T08:02:13.683Z,57.83
2023-03-02T08:04:48.729Z,56.00
2023-03-02T08:07:21.046Z,54.80
2023-03-02T08:09:53.698Z,53.19
2023-03-02T08:12:32.737Z,52.26
2023-03-02T08:15:46.075Z,52.60
2023-03-02T08:18:18.794Z,51.21
2023-03-02T08:21:37.050Z,50.87
2023-03-02T08:24:11.230Z,50.44
2023-03-02T08:26:43.434Z,49.86
2023-03-02T08:29:24.638Z,48.77
2023-03-02T08:32:21.690Z,48.48
2023-03-02T08:38:56.820Z,48.54
2023-03-02T08:41:31.901Z,47.81
2023-03-02T08:45:57.866Z,46.16
2023-03-02T08:48:33.318Z,44.32
2023-03-02T08:51:56.501Z,44.30
2023-03-02T08:58:37.886Z,43.82
2023-03-02T09:05:40.949Z,41.55
2023-03-02T09:09:07.066Z,40.50
2023-03-02T09:11:40.071Z,39.78
2023-03-02T09:14:12.447Z,39.10
2023-03-02T09:16:45.443Z,38.68
2023-03-02T09:24:11.463Z,34.79
2023-03-02T09:30:53.860Z,33.35
2023-03-02T09:34:15.285Z,32.14
2023-03-02T09:46:49.088Z,27.04
2023-03-02T09:57:41.623Z,25.43
2023-03-02T10:04:45.497Z,24.72
2023-03-02T10:11:47.988Z,23.50
2023-03-02T10:14:26.647Z,23.79
2023-03-02T10:25:43.724Z,22.47
2023-03-02T10:32:41.151Z,21.87
2023-03-02T10:39:42.595Z,20.99
2023-03-02T10:42:23.688Z,21.38
2023-03-02T10:45:07.248Z,21.45
2023-03-02T10:52:32.156Z,21.22
2023-03-02T11:03:05.804Z,21.97
2023-03-02T11:06:36.073Z,22.36
2023-03-02T11:16:35.802Z,23.05
2023-03-02T11:23:32.588Z,24.38
2023-03-02T11:26:48.190Z,24.52
2023-03-02T11:29:36.692Z,24.16
2023-03-02T11:48:34.584Z,25.14
2023-03-02T11:51:23.186Z,25.52
2023-03-02T11:53:58.825Z,25.92
2023-03-02T11:57:51.612Z,25.44
2023-03-02T12:05:15.549Z,24.94
2023-03-02T12:12:43.103Z,25.74
2023-03-02T12:20:37.528Z,26.52
2023-03-02T12:27:56.097Z,26.85
2023-03-02T12:30:32.681Z,26.72
2023-03-02T12:37:57.972Z,27.31
2023-03-02T12:41:13.266Z,27.64
2023-03-02T12:48:33.078Z,27.92
2023-03-02T12:51:07.025Z,28.22
2023-03-02T12:53:41.260Z,28.39
2023-03-02T13:09:58.512Z,27.15
2023-03-02T13:13:22.438Z,26.97
2023-03-02T13:15:57.884Z,27.13
2023-03-02T13:19:20.549Z,26.48
2023-03-02T13:25:55.910Z,26.10
2023-03-02T13:29:23.213Z,26.01
2023-03-02T13:32:40.229Z,25.85
2023-03-02T13:36:09.808Z,25.65
2023-03-02T13:39:09.856Z,25.96
2023-03-02T13:47:30.444Z,25.91
2023-03-02T13:50:39.673Z,26.12
2023-03-02T14:01:38.669Z,26.72
2023-03-02T14:04:14.390Z,27.07
2023-03-02T14:07:47.285Z,27.20
2023-03-02T14:10:21.810Z,27.36
2023-03-02T14:14:30.333Z,27.87
2023-03-02T14:17:03.086Z,28.52
2023-03-02T14:19:35.393Z,29.17
2023-03-02T14:22:14.204Z,29.48
2023-03-02T14:24:47.058Z,29.82
2023-03-02T14:27:30.822Z,30.16
2023-03-02T14:30:03.537Z,30.42
2023-03-02T14:32:35.916Z,30.26
2023-03-02T14:40:19.370Z,30.90
2023-03-02T14:42:53.325Z,31.31
2023-03-02T14:45:25.716Z,31.76
2023-03-02T14:47:58.633Z,31.73
2023-03-02T14:51:02.685Z,32.02
2023-03-02T14:53:36.697Z,32.73
2023-03-02T14:56:11.434Z,33.17
2023-03-02T15:06:41.543Z,34.24
2023-03-02T15:09:14.484Z,34.37
2023-03-02T15:11:47.218Z,34.56
2023-03-02T15:14:19.645Z,34.84
2023-03-02T15:16:52.027Z,35.53
2023-03-02T15:19:24.700Z,35.82
2023-03-02T15:21:58.411Z,36.44
2023-03-02T15:24:33.167Z,36.63
2023-03-02T15:27:38.492Z,36.83
2023-03-02T15:30:13.117Z,37.14
2023-03-02T15:32:45.673Z,37.66
2023-03-02T15:35:18.631Z,37.57
2023-03-02T15:37:51.188Z,37.86
2023-03-02T15:40:23.657Z,38.19
2023-03-02T15:42:56.124Z,38.63
2023-03-02T15:45:29.013Z,38.82
2023-03-02T15:48:01.410Z,39.10
2023-03-02T15:50:33.703Z,39.40
2023-03-02T15:53:12.361Z,39.66
2023-03-02T15:55:44.796Z,39.86
2023-03-02T15:58:17.956Z,39.84
2023-03-02T16:00:50.575Z,40.41
2023-03-02T16:03:23.714Z,40.88
2023-03-02T16:06:00.554Z,40.80
2023-03-02T16:08:33.168Z,41.13
2023-03-02T16:11:08.297Z,41.27
2023-03-02T16:13:40.679Z,41.54
2023-03-02T16:16:13.270Z,41.76
2023-03-02T16:18:55.847Z,42.03
2023-03-02T16:21:29.604Z,42.29
2023-03-02T16:24:04.835Z,42.43
2023-03-02T16:26:38.753Z,42.83
2023-03-02T16:29:12.902Z,42.97
2023-03-02T16:31:48.498Z,43.30
2023-03-02T16:34:20.880Z,43.52
2023-03-02T16:36:53.155Z,44.06
2023-03-02T16:39:25.943Z,44.21
2023-03-02T16:41:58.339Z,44.48
2023-03-02T16:44:30.823Z,44.59
2023-03-02T16:47:03.551Z,44.84
2023-03-02T16:49:35.969Z,45.06
2023-03-02T16:52:08.633Z,45.26
2023-03-02T16:54:40.990Z,45.81
2023-03-02T16:57:32.771Z,46.04
2023-03-02T17:00:06.205Z,45.98
2023-03-02T17:02:41.660Z,46.27
2023-03-02T17:05:16.551Z,46.69
2023-03-02T17:07:49.394Z,46.92
2023-03-02T17:10:23.493Z,47.06
2023-03-02T17:12:55.871Z,47.17
2023-03-02T17:15:28.193Z,47.28
2023-03-02T17:18:00.745Z,47.47
2023-03-02T17:20:36.830Z,47.39
2023-03-02T17:23:11.957Z,47.78
2023-03-02T17:25:44.569Z,48.22
2023-03-02T17:28:17.217Z,48.40
2023-03-02T17:30:50.215Z,48.92
2023-03-02T17:33:22.632Z,49.33
2023-03-02T17:35:55.045Z,49.33
2023-03-02T17:38:27.544Z,49.41
2023-03-02T17:41:04.711Z,49.83
2023-03-02T17:43:42.309Z,49.79
2023-03-02T17:46:20.363Z,49.93
2023-03-02T17:48:55.380Z,50.35
2023-03-02T17:51:29.180Z,50.36
2023-03-02T17:54:01.458Z,50.52
2023-03-02T17:56:49.872Z,51.07
2023-03-02T17:59:22.332Z,51.60
2023-03-02T18:01:54.626Z,51.24
2023-03-02T18:04:27.143Z,51.24
2023-03-02T18:07:01.737Z,51.57
2023-03-02T18:09:34.089Z,52.31
2023-03-02T18:12:07.806Z,53.20
2023-03-02T18:15:08.102Z,53.14
2023-03-02T18:17:41.534Z,52.49
2023-03-02T18:20:15.963Z,53.04
2023-03-02T18:22:48.254Z,52.78
2023-03-02T18:25:20.616Z,53.67
2023-03-02T18:27:56.054Z,54.05
2023-03-02T18:30:28.580Z,53.38
2023-03-02T18:33:01.485Z,53.74
2023-03-02T18:35:34.528Z,53.76
2023-03-02T18:38:06.969Z,54.28
2023-03-02T18:40:40.798Z,54.99
2023-03-02T18:43:13.284Z,55.29
2023-03-02T18:46:23.225Z,55.16
2023-03-02T18:48:57.098Z,55.49
2023-03-02T18:51:29.869Z,55.45
2023-03-02T18:54:02.522Z,55.28
2023-03-02T18:56:34.860Z,55.61
2023-03-02T18:59:07.694Z,56.26
2023-03-02T19:01:40.516Z,56.09
2023-03-02T19:04:16.821Z,55.87
2023-03-02T19:06:49.918Z,55.63
2023-03-02T19:09:22.219Z,55.96
2023-03-02T19:11:54.562Z,56.13
2023-03-02T19:14:26.823Z,56.65
2023-03-02T19:17:01.788Z,56.93
2023-03-02T19:19:35.530Z,56.88
2023-03-02T19:22:09.176Z,56.73
2023-03-02T19:24:41.666Z,56.96
2023-03-02T19:27:14.229Z,56.88
2023-03-02T19:29:46.668Z,57.05
2023-03-02T19:32:20.558Z,57.34
2023-03-02T19:34:53.210Z,57.44
2023-03-02T19:37:25.558Z,57.59
2023-03-02T19:40:00.459Z,58.19
2023-03-02T19:42:39.393Z,58.08
2023-03-02T19:45:16.431Z,58.31
2023-03-02T19:47:49.181Z,58.58
2023-03-02T19:50:21.740Z,58.34
2023-03-02T19:52:54.922Z,58.15
2023-03-02T19:55:28.270Z,58.42
2023-03-02T19:58:02.140Z,58.85
2023-03-02T20:00:38.862Z,58.93
2023-03-02T20:03:11.128Z,59.32
2023-03-02T20:10:41.530Z,59.66
2023-03-02T20:13:51.368Z,59.74
2023-03-02T20:16:31.473Z,60.54
2023-03-02T20:23:54.524Z,61.12
2023-03-02T20:26:27.684Z,61.17
2023-03-02T20:29:56.193Z,61.18
2023-03-02T20:32:28.665Z,60.97
2023-03-02T20:35:00.991Z,60.30
2023-03-02T20:55:37.997Z,61.55
2023-03-02T20:58:10.958Z,61.48
2023-03-02T21:05:37.473Z,62.35
2023-03-02T21:08:11.390Z,61.89
2023-03-02T21:10:50.732Z,62.81
2023-03-02T21:14:21.058Z,62.22
2023-03-02T21:17:15.267Z,62.92
2023-03-02T21:19:47.646Z,62.55
2023-03-02T21:22:47.191Z,62.58
2023-03-02T21:37:09.860Z,62.66
2023-03-02T21:39:48.778Z,62.59
2023-03-02T21:42:21.456Z,62.94
2023-03-02T21:45:25.507Z,63.19
2023-03-02T21:48:05.233Z,63.43
2023-03-02T21:50:39.859Z,63.03
2023-03-02T21:54:49.442Z,63.08
2023-03-02T21:57:21.898Z,63.38
2023-03-02T22:08:51.245Z,64.13
2023-03-02T22:11:26.055Z,64.45
2023-03-02T22:15:50.764Z,64.29
2023-03-02T22:22:59.439Z,65.28
2023-03-02T22:25:33.906Z,65.36
2023-03-02T22:32:39.639Z,64.89
2023-03-02T22:35:30.551Z,64.37
2023-03-02T22:43:14.498Z,64.56
2023-03-02T22:45:49.809Z,64.85
2023-03-02T22:49:19.529Z,64.66
2023-03-02T22:57:42.477Z,64.74
2023-03-02T23:04:59.525Z,65.30
2023-03-02T23:11:56.272Z,65.73
2023-03-02T23:15:30.635Z,65.87
2023-03-02T23:31:05.108Z,65.09
2023-03-02T23:34:47.383Z,65.66
2023-03-02T23:37:20.335Z,66.00
2023-03-02T23:39:52.965Z,65.97
2023-03-02T23:43:10.626Z,66.24
2023-03-02T23:45:42.955Z,66.33
2023-03-02T23:48:16.621Z,66.25
2023-03-02T23:50:57.948Z,66.64
2023-03-02T23:54:13.365Z,66.58
